createdAt,value
2017-08-14T00:00:45.824Z,99223.34
2017-08-14T00:03:15.557Z,99229.70
2017-08-14T00:05:45.289Z,99229.66
2017-08-14T00:08:15.028Z,99228.39
2017-08-14T00:10:44.752Z,99226.86
2017-08-14T00:13:14.481Z,99227.39
2017-08-14T00:15:44.207Z,99224.95
2017-08-14T00:18:13.945Z,99218.72
2017-08-14T00:20:43.661Z,99218.17
2017-08-14T00:23:13.380Z,99220.95
2017-08-14T00:25:43.122Z,99224.30
2017-08-14T00:28:12.893Z,99221.81
2017-08-14T00:30:42.635Z,99221.12
2017-08-14T00:33:12.381Z,99218.92
2017-08-14T00:35:42.104Z,99224.18
2017-08-14T00:38:11.833Z,99215.67
2017-08-14T00:40:41.675Z,99215.91
2017-08-14T00:43:11.408Z,99211.55
2017-08-14T00:45:41.135Z,99216.39
2017-08-14T00:48:10.875Z,99216.25
2017-08-14T00:50:40.609Z,99217.19
2017-08-14T00:53:10.171Z,99215.37
2017-08-14T00:55:39.908Z,99224.14
2017-08-14T00:58:09.693Z,99220.88
2017-08-14T01:00:39.084Z,99222.60
2017-08-14T01:03:08.812Z,99220.16
2017-08-14T01:05:38.566Z,99218.94
2017-08-14T01:08:08.285Z,99217.59
2017-08-14T01:10:38.012Z,99218.41
2017-08-14T01:13:07.805Z,99215.30
2017-08-14T01:15:37.564Z,99216.23
2017-08-14T01:18:07.288Z,99210.67
2017-08-14T01:20:37.024Z,99210.74
2017-08-14T01:23:06.744Z,99219.39
2017-08-14T01:25:36.498Z,99225.85
2017-08-14T01:28:06.940Z,99215.53
2017-08-14T01:30:36.724Z,99215.92
2017-08-14T01:33:06.453Z,99215.92
2017-08-14T01:35:36.180Z,99210.58
2017-08-14T01:38:05.937Z,99212.33
2017-08-14T01:40:35.649Z,99209.31
2017-08-14T01:43:05.374Z,99204.31
2017-08-14T01:45:35.269Z,99203.88
2017-08-14T01:48:05.004Z,99206.01
2017-08-14T01:50:34.737Z,99204.52
2017-08-14T01:53:04.459Z,99201.88
2017-08-14T01:55:34.214Z,99197.70
2017-08-14T01:58:03.936Z,99192.81
2017-08-14T02:00:33.665Z,99196.16
2017-08-14T02:03:03.221Z,99188.95
2017-08-14T02:05:32.773Z,99194.35
2017-08-14T02:08:02.517Z,99201.34
2017-08-14T02:10:32.240Z,99196.70
2017-08-14T02:13:01.980Z,99196.03
2017-08-14T02:15:31.712Z,99199.55
2017-08-14T02:18:01.453Z,99204.66
2017-08-14T02:20:31.171Z,99200.30
2017-08-14T02:23:00.894Z,99200.13
2017-08-14T02:25:30.619Z,99194.82
2017-08-14T02:28:00.381Z,99210.63
2017-08-14T02:30:30.112Z,99202.09
2017-08-14T02:32:59.842Z,99208.33
2017-08-14T02:35:30.266Z,99213.93
2017-08-14T02:38:00.049Z,99214.05
2017-08-14T02:40:29.748Z,99211.99
2017-08-14T02:42:59.495Z,99206.15
2017-08-14T02:45:29.208Z,99211.15
2017-08-14T02:47:58.934Z,99209.67
2017-08-14T02:50:28.648Z,99203.03
2017-08-14T02:52:58.412Z,99204.87
2017-08-14T02:55:28.209Z,99211.22
2017-08-14T02:57:57.936Z,99208.20
2017-08-14T03:00:27.674Z,99210.38
2017-08-14T03:02:57.416Z,99212.14
2017-08-14T03:05:27.134Z,99211.44
2017-08-14T03:07:56.860Z,99212.06
2017-08-14T03:10:26.652Z,99211.21
2017-08-14T03:12:56.206Z,99208.31
2017-08-14T03:15:25.937Z,99207.87
2017-08-14T03:17:55.667Z,99210.02
2017-08-14T03:20:25.396Z,99208.64
2017-08-14T03:22:55.123Z,99214.38
2017-08-14T03:25:24.845Z,99219.05
2017-08-14T03:27:54.569Z,99215.68
2017-08-14T03:30:24.301Z,99222.80
2017-08-14T03:32:54.011Z,99223.88
2017-08-14T03:35:23.779Z,99227.38
2017-08-14T03:37:53.504Z,99227.53
2017-08-14T03:40:23.264Z,99227.12
2017-08-14T03:42:53.000Z,99223.06
2017-08-14T03:45:22.796Z,99228.17
2017-08-14T03:47:52.508Z,99225.06
2017-08-14T03:50:22.290Z,99229.23
2017-08-14T03:52:51.996Z,99235.58
2017-08-14T03:55:21.908Z,99242.42
2017-08-14T03:57:51.628Z,99242.95
2017-08-14T04:00:21.375Z,99236.69
2017-08-14T04:02:50.925Z,99238.69
2017-08-14T04:05:20.689Z,99240.16
2017-08-14T04:07:50.398Z,99239.48
2017-08-14T04:10:20.163Z,99237.43
2017-08-14T04:12:49.912Z,99244.42
2017-08-14T04:15:19.655Z,99245.55
2017-08-14T04:17:49.409Z,99242.20
2017-08-14T04:20:19.178Z,99242.22
2017-08-14T04:22:48.895Z,99239.95
2017-08-14T04:25:18.673Z,99235.66
2017-08-14T04:27:48.376Z,99244.74
2017-08-14T04:30:18.165Z,99253.27
2017-08-14T04:32:47.897Z,99253.30
2017-08-14T04:35:17.646Z,99246.83
2017-08-14T04:37:47.361Z,99245.67
2017-08-14T04:40:17.161Z,99249.23
2017-08-14T04:42:46.877Z,99250.91
2017-08-14T04:45:16.663Z,99244.22
2017-08-14T04:47:46.376Z,99244.56
2017-08-14T04:50:16.139Z,99242.28
2017-08-14T04:52:45.844Z,99239.44
2017-08-14T04:55:15.621Z,99236.83
2017-08-14T04:57:45.337Z,99239.06
2017-08-14T05:00:15.095Z,99243.80
2017-08-14T05:02:44.666Z,99242.96
2017-08-14T05:05:14.418Z,99243.09
2017-08-14T05:07:44.148Z,99236.95
2017-08-14T05:10:13.921Z,99243.35
2017-08-14T05:12:43.662Z,99239.72
2017-08-14T05:15:13.443Z,99244.30
2017-08-14T05:17:43.175Z,99243.80
2017-08-14T05:20:12.943Z,99242.80
2017-08-14T05:22:42.670Z,99242.45
2017-08-14T05:25:12.462Z,99243.75
2017-08-14T05:27:42.176Z,99244.38
2017-08-14T05:30:11.940Z,99237.11
2017-08-14T05:32:41.669Z,99243.03
2017-08-14T05:35:11.436Z,99231.68
2017-08-14T05:37:41.184Z,99236.20
2017-08-14T05:40:11.027Z,99232.44
2017-08-14T05:42:40.456Z,99232.53
2017-08-14T05:45:10.244Z,99230.79
2017-08-14T05:47:39.963Z,99228.78
2017-08-14T05:50:09.463Z,99224.47
2017-08-14T05:52:38.892Z,99229.41
2017-08-14T05:55:08.399Z,99223.14
2017-08-14T05:57:37.836Z,99230.91
2017-08-14T06:00:07.343Z,99227.11
2017-08-14T06:02:36.623Z,99235.13
2017-08-14T06:05:06.105Z,99245.50
2017-08-14T06:07:35.566Z,99242.50
2017-08-14T06:10:05.058Z,99255.81
2017-08-14T06:12:34.510Z,99255.52
2017-08-14T06:15:03.991Z,99256.30
2017-08-14T06:17:33.433Z,99251.49
2017-08-14T06:20:02.919Z,99243.97
2017-08-14T06:22:32.378Z,99243.22
2017-08-14T06:25:01.843Z,99250.39
2017-08-14T06:27:31.270Z,99244.19
2017-08-14T06:32:39.241Z,99246.53
2017-08-14T06:35:08.721Z,99250.01
2017-08-14T06:37:38.209Z,99254.84
2017-08-14T06:40:07.678Z,99255.71
2017-08-14T06:42:37.115Z,99249.89
2017-08-14T06:45:06.611Z,99250.51
2017-08-14T06:47:36.053Z,99248.39
2017-08-14T06:50:05.584Z,99247.74
2017-08-14T06:52:35.020Z,99244.22
2017-08-14T06:55:04.515Z,99243.19
2017-08-14T06:57:33.960Z,99248.53
2017-08-14T07:00:03.450Z,99245.67
2017-08-14T07:02:32.706Z,99246.36
2017-08-14T07:05:02.945Z,99249.16
2017-08-14T07:07:32.368Z,99247.47
2017-08-14T07:10:01.836Z,99247.58
2017-08-14T07:12:31.311Z,99247.42
2017-08-14T07:15:03.118Z,99254.08
2017-08-14T07:17:32.560Z,99249.68
2017-08-14T07:20:02.043Z,99247.45
2017-08-14T07:22:31.479Z,99245.45
2017-08-14T07:25:00.915Z,99248.00
2017-08-14T07:27:30.359Z,99251.48
2017-08-14T07:29:59.816Z,99247.67
2017-08-14T07:32:29.264Z,99245.58
2017-08-14T07:34:58.708Z,99246.32
2017-08-14T07:37:28.174Z,99242.83
2017-08-14T07:39:57.612Z,99240.85
2017-08-14T07:42:26.880Z,99239.18
2017-08-14T07:44:56.334Z,99243.95
2017-08-14T07:47:25.777Z,99235.20
2017-08-14T07:49:55.209Z,99235.69
2017-08-14T07:52:24.645Z,99237.31
2017-08-14T07:54:54.092Z,99233.36
2017-08-14T07:57:23.656Z,99234.94
2017-08-14T07:59:53.104Z,99237.58
2017-08-14T08:02:22.545Z,99232.04
2017-08-14T08:04:51.989Z,99236.97
2017-08-14T08:07:21.437Z,99237.95
2017-08-14T08:09:50.889Z,99233.10
2017-08-14T08:12:20.329Z,99235.30
2017-08-14T08:14:49.786Z,99226.19
2017-08-14T08:17:19.220Z,99225.03
2017-08-14T08:19:48.666Z,99231.61
2017-08-14T08:22:18.113Z,99228.55
2017-08-14T08:24:47.561Z,99232.99
2017-08-14T08:27:16.828Z,99231.58
2017-08-14T08:29:46.281Z,99236.74
2017-08-14T08:32:15.722Z,99227.62
2017-08-14T08:34:45.158Z,99226.18
2017-08-14T08:37:14.621Z,99225.48
2017-08-14T08:39:44.049Z,99223.89
2017-08-14T08:42:13.481Z,99222.90
2017-08-14T08:44:42.919Z,99224.75
2017-08-14T08:47:12.368Z,99221.92
2017-08-14T08:49:41.821Z,99226.27
2017-08-14T08:52:11.265Z,99222.70
2017-08-14T08:54:40.701Z,99227.61
2017-08-14T08:57:10.160Z,99223.41
2017-08-14T08:59:39.607Z,99227.97
2017-08-14T09:02:09.075Z,99220.71
2017-08-14T09:04:38.613Z,99223.20
2017-08-14T09:07:08.049Z,99225.02
2017-08-14T09:09:37.496Z,99221.52
2017-08-14T09:12:06.932Z,99221.20
2017-08-14T09:14:36.376Z,99218.75
2017-08-14T09:17:05.827Z,99217.50
2017-08-14T09:19:35.274Z,99214.23
2017-08-14T09:22:04.720Z,99216.50
2017-08-14T09:24:34.181Z,99216.29
2017-08-14T09:27:03.601Z,99218.65
2017-08-14T09:29:33.067Z,99215.02
2017-08-14T09:32:02.508Z,99215.92
2017-08-14T09:34:32.085Z,99212.66
2017-08-14T09:37:01.525Z,99207.09
2017-08-14T09:39:30.977Z,99207.82
2017-08-14T09:42:00.443Z,99209.67
2017-08-14T09:44:29.887Z,99212.77
2017-08-14T09:46:59.328Z,99208.03
2017-08-14T09:49:28.773Z,99205.09
2017-08-14T09:51:58.217Z,99206.61
2017-08-14T09:54:27.667Z,99207.95
2017-08-14T09:56:57.104Z,99205.78
2017-08-14T09:59:26.545Z,99202.54
2017-08-14T10:01:55.997Z,99199.65
2017-08-14T10:04:25.464Z,99200.80
2017-08-14T10:06:54.900Z,99199.21
2017-08-14T10:09:24.355Z,99199.89
2017-08-14T10:11:53.792Z,99193.53
2017-08-14T10:14:23.234Z,99194.15
2017-08-14T10:16:52.690Z,99190.76
2017-08-14T10:19:22.119Z,99195.19
2017-08-14T10:21:51.581Z,99194.55
2017-08-14T10:24:21.024Z,99184.66
2017-08-14T10:26:50.451Z,99186.63
2017-08-14T10:29:19.893Z,99179.53
2017-08-14T10:31:49.335Z,99178.09
2017-08-14T10:34:18.767Z,99173.06
2017-08-14T10:36:48.221Z,99169.14
2017-08-14T10:39:17.665Z,99174.55
2017-08-14T10:41:47.106Z,99174.92
2017-08-14T10:44:16.547Z,99169.23
2017-08-14T10:46:46.000Z,99175.28
2017-08-14T10:49:15.444Z,99165.36
2017-08-14T10:51:44.902Z,99168.30
2017-08-14T10:54:14.344Z,99168.89
2017-08-14T10:56:43.809Z,99160.20
2017-08-14T10:59:13.242Z,99162.30
2017-08-14T11:01:42.695Z,99158.94
2017-08-14T11:04:12.132Z,99155.11
2017-08-14T11:06:41.565Z,99154.47
2017-08-14T11:09:11.004Z,99149.44
2017-08-14T11:11:40.460Z,99149.31
2017-08-14T11:14:09.917Z,99147.02
2017-08-14T11:16:39.335Z,99150.91
2017-08-14T11:19:08.797Z,99152.07
2017-08-14T11:21:38.249Z,99149.25
2017-08-14T11:24:07.694Z,99145.01
2017-08-14T11:26:37.166Z,99140.92
2017-08-14T11:29:06.614Z,99135.13
2017-08-14T11:31:36.061Z,99134.23
2017-08-14T11:34:05.509Z,99131.78
2017-08-14T11:36:34.945Z,99124.00
2017-08-14T11:39:03.841Z,99124.58
2017-08-14T11:41:33.338Z,99124.13
2017-08-14T11:44:02.636Z,99122.13
2017-08-14T11:46:32.092Z,99118.32
2017-08-14T11:49:01.545Z,99115.48
2017-08-14T11:51:30.977Z,99113.82
2017-08-14T11:54:00.456Z,99112.61
2017-08-14T11:56:29.969Z,99115.28
2017-08-14T11:58:59.394Z,99113.20
2017-08-14T12:01:28.857Z,99114.01
2017-08-14T12:03:58.308Z,99109.57
2017-08-14T12:06:27.757Z,99104.33
2017-08-14T12:08:57.228Z,99099.56
2017-08-14T12:11:26.653Z,99095.46
2017-08-14T12:13:56.105Z,99098.45
2017-08-14T12:16:25.559Z,99096.55
2017-08-14T12:18:55.011Z,99101.09
2017-08-14T12:21:24.441Z,99095.02
2017-08-14T12:23:53.885Z,99095.59
2017-08-14T12:26:23.337Z,99086.02
2017-08-14T12:28:52.778Z,99084.50
2017-08-14T12:31:22.221Z,99082.73
2017-08-14T12:33:51.669Z,99079.09
2017-08-14T12:36:21.120Z,99082.78
2017-08-14T12:38:50.561Z,99075.91
2017-08-14T12:41:20.006Z,99071.64
2017-08-14T12:43:49.436Z,99069.49
2017-08-14T12:46:18.911Z,99074.25
2017-08-14T12:48:48.349Z,99070.36
2017-08-14T12:51:17.840Z,99066.28
2017-08-14T12:53:47.283Z,99064.45
2017-08-14T12:56:16.746Z,99062.64
2017-08-14T12:58:46.267Z,99068.41
2017-08-14T13:01:15.685Z,99060.05
2017-08-14T13:03:45.132Z,99052.18
2017-08-14T13:06:14.633Z,99055.23
2017-08-14T13:08:44.092Z,99053.19
2017-08-14T13:11:13.532Z,99045.41
2017-08-14T13:13:42.965Z,99051.30
2017-08-14T13:16:12.420Z,99049.42
2017-08-14T13:18:41.870Z,99046.38
2017-08-14T13:21:11.298Z,99046.89
2017-08-14T13:23:40.753Z,99040.36
2017-08-14T13:26:10.262Z,99038.85
2017-08-14T13:28:39.686Z,99037.06
2017-08-14T13:31:09.125Z,99038.61
2017-08-14T13:33:38.569Z,99036.89
2017-08-14T13:36:08.030Z,99035.58
2017-08-14T13:38:37.472Z,99033.24
2017-08-14T13:41:07.048Z,99034.66
2017-08-14T13:43:36.481Z,99031.80
2017-08-14T13:46:05.923Z,99031.13
2017-08-14T13:48:35.357Z,99030.77
2017-08-14T13:51:04.791Z,99029.65
2017-08-14T13:53:34.225Z,99021.42
2017-08-14T13:56:03.670Z,99020.00
2017-08-14T13:58:33.116Z,99019.88
2017-08-14T14:01:02.585Z,99017.09
2017-08-14T14:03:32.012Z,99015.66
2017-08-14T14:06:01.444Z,99015.36
2017-08-14T14:08:30.916Z,99016.23
2017-08-14T14:11:00.363Z,99006.66
2017-08-14T14:13:29.797Z,99012.74
2017-08-14T14:15:59.262Z,99007.20
2017-08-14T14:18:28.712Z,98997.45
2017-08-14T14:20:58.329Z,98996.81
2017-08-14T14:23:27.773Z,98996.39
2017-08-14T14:25:57.239Z,98993.70
2017-08-14T14:28:26.687Z,98982.70
2017-08-14T14:30:56.144Z,98983.53
2017-08-14T14:33:25.595Z,98987.42
2017-08-14T14:35:55.097Z,98979.64
2017-08-14T14:38:24.552Z,98980.47
2017-08-14T14:40:53.992Z,98977.81
2017-08-14T14:43:23.450Z,98978.82
2017-08-14T14:45:52.922Z,98986.22
2017-08-14T14:48:22.360Z,98974.31
2017-08-14T14:50:51.800Z,98969.67
2017-08-14T14:53:21.247Z,98970.63
2017-08-14T14:55:50.696Z,98973.76
2017-08-14T14:58:20.163Z,98961.45
2017-08-14T15:00:49.622Z,98960.42
2017-08-14T15:03:19.050Z,98952.19
2017-08-14T15:05:48.486Z,98957.51
2017-08-14T15:08:17.946Z,98961.54
2017-08-14T15:10:47.377Z,98960.48
2017-08-14T15:13:16.813Z,98950.97
2017-08-14T15:15:46.264Z,98955.54
2017-08-14T15:18:15.710Z,98957.15
2017-08-14T15:20:45.184Z,98953.64
2017-08-14T15:23:14.628Z,98962.41
2017-08-14T15:25:44.078Z,98953.47
2017-08-14T15:28:13.532Z,98952.34
2017-08-14T15:30:42.992Z,98947.70
2017-08-14T15:33:12.449Z,98949.83
2017-08-14T15:35:41.880Z,98945.55
2017-08-14T15:38:11.361Z,98946.58
2017-08-14T15:40:40.811Z,98946.78
2017-08-14T15:43:10.256Z,98947.05
2017-08-14T15:45:39.736Z,98942.91
2017-08-14T15:48:09.178Z,98940.35
2017-08-14T15:50:38.642Z,98947.27
2017-08-14T15:53:08.094Z,98936.50
2017-08-14T15:55:37.558Z,98933.75
2017-08-14T15:58:07.005Z,98936.86
2017-08-14T16:00:36.456Z,98929.13
2017-08-14T16:03:05.897Z,98932.86
2017-08-14T16:05:35.334Z,98932.61
2017-08-14T16:08:04.778Z,98931.83
2017-08-14T16:10:34.232Z,98928.85
2017-08-14T16:13:03.661Z,98923.63
2017-08-14T16:15:33.313Z,98924.17
2017-08-14T16:18:02.760Z,98915.98
2017-08-14T16:20:32.197Z,98919.22
2017-08-14T16:23:01.654Z,98920.02
2017-08-14T16:25:31.081Z,98919.27
2017-08-14T16:28:00.537Z,98920.44
2017-08-14T16:30:29.983Z,98927.17
2017-08-14T16:32:59.257Z,98917.02
2017-08-14T16:35:28.688Z,98921.02
2017-08-14T16:37:58.143Z,98921.78
2017-08-14T16:40:27.573Z,98922.80
2017-08-14T16:42:57.020Z,98913.19
2017-08-14T16:45:26.460Z,98921.84
2017-08-14T16:47:55.912Z,98927.88
2017-08-14T16:50:25.355Z,98925.70
2017-08-14T16:52:54.819Z,98921.62
2017-08-14T16:55:24.293Z,98926.53
2017-08-14T16:57:53.756Z,98931.05
2017-08-14T17:00:23.250Z,98931.73
2017-08-14T17:02:52.664Z,98929.05
2017-08-14T17:05:22.142Z,98926.06
2017-08-14T17:07:51.581Z,98922.77
2017-08-14T17:10:21.078Z,98923.59
2017-08-14T17:12:50.522Z,98924.05
2017-08-14T17:15:20.152Z,98920.08
2017-08-14T17:17:49.597Z,98924.92
2017-08-14T17:20:19.103Z,98924.56
2017-08-14T17:22:48.546Z,98927.58
2017-08-14T17:25:18.047Z,98929.75
2017-08-14T17:27:47.489Z,98929.52
2017-08-14T17:30:16.969Z,98930.11
2017-08-14T17:32:46.417Z,98928.70
2017-08-14T17:35:15.963Z,98921.95
2017-08-14T17:37:45.397Z,98927.77
2017-08-14T17:40:14.877Z,98927.61
2017-08-14T17:42:44.336Z,98923.25
2017-08-14T17:45:13.827Z,98930.51
2017-08-14T17:47:43.366Z,98928.08
2017-08-14T17:50:12.883Z,98931.45
2017-08-14T17:52:42.316Z,98927.73
2017-08-14T17:55:11.826Z,98930.03
2017-08-14T17:57:41.282Z,98938.66
2017-08-14T18:00:10.790Z,98933.11
2017-08-14T18:02:40.240Z,98937.20
2017-08-14T18:05:09.743Z,98942.02
2017-08-14T18:07:39.207Z,98940.23
2017-08-14T18:10:08.665Z,98945.12
2017-08-14T18:12:38.110Z,98945.28
2017-08-14T18:15:07.610Z,98947.77
2017-08-14T18:17:37.032Z,98947.23
2017-08-14T18:20:06.503Z,98946.70
2017-08-14T18:22:35.948Z,98951.94
2017-08-14T18:25:05.467Z,98958.61
2017-08-14T18:27:34.918Z,98961.61
2017-08-14T18:30:04.407Z,98960.11
2017-08-14T18:32:33.863Z,98963.47
2017-08-14T18:35:03.372Z,98965.01
2017-08-14T18:37:33.025Z,98968.64
2017-08-14T18:40:02.583Z,98966.86
2017-08-14T18:42:32.019Z,98967.00
2017-08-14T18:45:01.567Z,98975.72
2017-08-14T18:47:31.000Z,98976.80
2017-08-14T18:50:00.476Z,98977.34
2017-08-14T18:52:29.913Z,98990.47
2017-08-14T18:54:59.344Z,98989.78
2017-08-14T18:57:28.838Z,98992.53
2017-08-14T18:59:58.268Z,98990.98
2017-08-14T19:02:27.715Z,98993.96
2017-08-14T19:04:57.172Z,98996.25
2017-08-14T19:07:26.949Z,98994.61
2017-08-14T19:09:56.466Z,98992.79
2017-08-14T19:12:25.581Z,98994.14
2017-08-14T19:14:55.028Z,98995.19
2017-08-14T19:17:24.472Z,98989.62
2017-08-14T19:19:53.918Z,98988.55
2017-08-14T19:22:23.370Z,98984.27
2017-08-14T19:24:52.801Z,98984.02
2017-08-14T19:27:22.256Z,98983.91
2017-08-14T19:29:51.689Z,98978.19
2017-08-14T19:32:21.137Z,98988.14
2017-08-14T19:34:50.629Z,98988.03
2017-08-14T19:37:20.056Z,98986.58
2017-08-14T19:39:49.489Z,98983.72
2017-08-14T19:42:18.928Z,98978.05
2017-08-14T19:44:48.404Z,98989.63
2017-08-14T19:47:17.829Z,98986.87
2017-08-14T19:49:47.268Z,98987.55
2017-08-14T19:52:16.731Z,98987.09
2017-08-14T19:54:46.165Z,98982.02
2017-08-14T19:57:15.617Z,98990.16
2017-08-14T19:59:45.076Z,98995.33
2017-08-14T20:02:14.516Z,98992.66
2017-08-14T20:04:43.959Z,98989.23
2017-08-14T20:07:13.401Z,98984.82
2017-08-14T20:09:42.839Z,98993.41
2017-08-14T20:12:12.284Z,98989.52
2017-08-14T20:14:41.766Z,98992.34
2017-08-14T20:17:11.226Z,98999.61
2017-08-14T20:19:40.681Z,99000.53
2017-08-14T20:22:10.231Z,99000.87
2017-08-14T20:24:39.707Z,99003.92
2017-08-14T20:27:09.164Z,99007.16
2017-08-14T20:29:38.596Z,99005.59
2017-08-14T20:32:08.061Z,99009.28
2017-08-14T20:34:37.523Z,99008.23
2017-08-14T20:37:06.984Z,99009.69
2017-08-14T20:39:36.445Z,99007.97
2017-08-14T20:42:05.877Z,99009.20
2017-08-14T20:44:35.328Z,99007.34
2017-08-14T20:47:04.780Z,99007.02
2017-08-14T20:49:34.237Z,99011.58
2017-08-14T20:52:03.685Z,99007.77
2017-08-14T20:54:33.145Z,99004.95
2017-08-14T20:57:02.621Z,99005.14
2017-08-14T20:59:32.069Z,98997.95
2017-08-14T21:02:01.633Z,99005.51
2017-08-14T21:04:31.081Z,99004.36
2017-08-14T21:07:00.537Z,99003.31
2017-08-14T21:09:29.986Z,99000.49
2017-08-14T21:11:59.428Z,99003.81
2017-08-14T21:14:28.872Z,99005.72
2017-08-14T21:16:58.316Z,99005.76
2017-08-14T21:19:27.770Z,99003.86
2017-08-14T21:21:57.208Z,98996.94
2017-08-14T21:24:26.640Z,98994.94
2017-08-14T21:26:56.084Z,98993.20
2017-08-14T21:29:25.564Z,98988.84
2017-08-14T21:31:55.025Z,98987.88
2017-08-14T21:34:24.458Z,98993.24
2017-08-14T21:36:53.921Z,98983.33
2017-08-14T21:39:23.380Z,98991.60
2017-08-14T21:41:52.828Z,98989.05
2017-08-14T21:44:22.265Z,98985.68
2017-08-14T21:46:51.711Z,98992.55
2017-08-14T21:49:21.156Z,98985.80
2017-08-14T21:51:50.619Z,98994.70
2017-08-14T21:54:20.055Z,98983.38
2017-08-14T21:56:49.532Z,98982.94
2017-08-14T21:59:18.987Z,98985.14
2017-08-14T22:01:48.431Z,98981.18
2017-08-14T22:04:17.874Z,98982.04
2017-08-14T22:06:47.316Z,98983.95
2017-08-14T22:09:16.580Z,98986.89
2017-08-14T22:11:46.053Z,98987.78
2017-08-14T22:14:15.517Z,98980.18
2017-08-14T22:16:44.955Z,98987.17
2017-08-14T22:19:14.433Z,98980.49
2017-08-14T22:21:43.880Z,98978.99
2017-08-14T22:24:13.339Z,98977.66
2017-08-14T22:26:42.774Z,98980.33
2017-08-14T22:29:12.273Z,98981.69
2017-08-14T22:31:41.685Z,98984.75
2017-08-14T22:34:11.150Z,98983.02
2017-08-14T22:36:40.609Z,98988.05
2017-08-14T22:39:10.069Z,98984.62
2017-08-14T22:41:39.509Z,98980.01
2017-08-14T22:44:08.958Z,98982.09
2017-08-14T22:46:38.398Z,98978.03
2017-08-14T22:49:07.836Z,98979.71
2017-08-14T22:51:37.284Z,98975.52
2017-08-14T22:54:06.737Z,98974.97
2017-08-14T22:56:36.235Z,98979.20
2017-08-14T22:59:05.670Z,98980.80
2017-08-14T23:01:35.118Z,98984.17
2017-08-14T23:04:04.739Z,98977.52
2017-08-14T23:06:34.180Z,98975.31
2017-08-14T23:09:03.181Z,98977.12
2017-08-14T23:11:32.634Z,98978.66
2017-08-14T23:14:02.248Z,98977.56
2017-08-14T23:16:31.687Z,98979.37
2017-08-14T23:19:01.801Z,98975.62
2017-08-14T23:21:31.252Z,98985.91
2017-08-14T23:24:00.708Z,98983.10
2017-08-14T23:26:30.162Z,98981.55
2017-08-14T23:28:59.598Z,98985.53
2017-08-14T23:31:29.068Z,98984.50
2017-08-14T23:33:58.508Z,98982.20
2017-08-14T23:36:27.952Z,98979.27
2017-08-14T23:38:57.418Z,98973.73
2017-08-14T23:41:26.896Z,98979.73
2017-08-14T23:43:56.316Z,98973.50
2017-08-14T23:46:25.758Z,98973.52
2017-08-14T23:48:55.214Z,98973.25
2017-08-14T23:51:24.652Z,98973.41
2017-08-14T23:53:54.126Z,98969.89
2017-08-14T23:56:24.270Z,98973.14
2017-08-14T23:58:53.706Z,98967.13
